createdAt,value
2023-05-19T00:01:17.593Z,12.30
2023-05-19T00:03:54.448Z,12.30
2023-05-19T00:06:25.027Z,12.30
2023-05-19T00:08:58.777Z,12.30
2023-05-19T00:11:27.329Z,12.30
2023-05-19T00:13:55.991Z,12.30
2023-05-19T00:16:24.457Z,12.30
2023-05-19T00:18:51.786Z,12.30
2023-05-19T00:21:18.982Z,12.30
2023-05-19T00:23:45.815Z,12.30
2023-05-19T00:26:13.089Z,12.30
2023-05-19T00:28:39.941Z,12.20
2023-05-19T00:31:07.105Z,12.20
2023-05-19T00:33:34.180Z,12.10
2023-05-19T00:36:04.585Z,12.10
2023-05-19T00:38:32.742Z,12.00
2023-05-19T00:41:00.944Z,12.10
2023-05-19T00:43:28.095Z,12.10
2023-05-19T00:45:54.891Z,12.10
2023-05-19T00:48:22.005Z,12.10
2023-05-19T00:50:50.438Z,12.00
2023-05-19T00:53:18.640Z,12.00
2023-05-19T00:55:47.723Z,12.10
2023-05-19T00:58:15.405Z,12.20
2023-05-19T01:00:43.425Z,12.10
2023-05-19T01:03:11.824Z,12.10
2023-05-19T01:05:41.739Z,12.20
2023-05-19T01:08:09.175Z,12.10
2023-05-19T01:10:36.097Z,12.10
2023-05-19T01:13:05.288Z,12.20
2023-05-19T01:15:49.974Z,12.20
2023-05-19T01:18:22.415Z,12.20
2023-05-19T01:21:03.698Z,12.10
2023-05-19T01:24:03.778Z,12.10
2023-05-19T01:26:34.957Z,12.00
2023-05-19T01:29:06.922Z,12.00
2023-05-19T01:31:35.222Z,11.90
2023-05-19T01:34:04.821Z,11.90
2023-05-19T01:36:33.116Z,11.90
2023-05-19T01:39:02.049Z,11.90
2023-05-19T01:41:30.773Z,11.90
2023-05-19T01:43:58.316Z,11.90
2023-05-19T01:46:25.414Z,11.80
2023-05-19T01:48:53.328Z,11.80
2023-05-19T01:51:20.150Z,11.80
2023-05-19T01:53:46.980Z,11.80
2023-05-19T01:56:19.118Z,11.80
2023-05-19T01:58:48.474Z,11.70
2023-05-19T02:01:29.311Z,11.70
2023-05-19T02:04:18.630Z,11.60
2023-05-19T02:07:05.364Z,11.60
2023-05-19T02:09:40.750Z,11.60
2023-05-19T02:12:22.898Z,11.60
2023-05-19T02:15:06.330Z,11.60
2023-05-19T02:17:38.338Z,11.50
2023-05-19T02:20:06.765Z,11.60
2023-05-19T02:22:33.621Z,11.50
2023-05-19T02:25:00.500Z,11.40
2023-05-19T02:27:27.830Z,11.30
2023-05-19T02:29:54.759Z,11.30
2023-05-19T02:32:22.128Z,11.30
2023-05-19T02:34:48.938Z,11.10
2023-05-19T02:37:16.397Z,11.20
2023-05-19T02:39:43.949Z,11.20
2023-05-19T02:42:12.361Z,11.20
2023-05-19T02:44:39.306Z,11.20
2023-05-19T02:47:06.358Z,11.10
2023-05-19T02:49:36.053Z,11.00
2023-05-19T02:52:04.072Z,11.00
2023-05-19T02:54:31.921Z,10.90
2023-05-19T02:56:59.205Z,10.90
2023-05-19T02:59:26.077Z,10.80
2023-05-19T03:01:56.688Z,10.90
2023-05-19T03:04:23.727Z,10.90
2023-05-19T03:06:50.537Z,10.90
2023-05-19T03:09:17.550Z,10.90
2023-05-19T03:11:44.469Z,10.90
2023-05-19T03:14:13.995Z,10.90
2023-05-19T03:16:42.305Z,11.00
2023-05-19T03:19:09.866Z,11.00
2023-05-19T03:21:36.903Z,11.00
2023-05-19T03:24:04.041Z,11.00
2023-05-19T03:26:30.880Z,11.00
2023-05-19T03:28:57.982Z,11.00
2023-05-19T03:31:26.890Z,11.00
2023-05-19T03:33:53.879Z,11.00
2023-05-19T03:36:22.125Z,11.00
2023-05-19T03:38:49.287Z,11.10
2023-05-19T03:41:16.335Z,11.10
2023-05-19T03:43:43.337Z,11.10
2023-05-19T03:46:10.251Z,11.20
2023-05-19T03:48:37.266Z,11.20
2023-05-19T03:51:07.448Z,11.20
2023-05-19T03:53:34.309Z,11.30
2023-05-19T03:56:01.452Z,11.30
2023-05-19T03:58:32.593Z,11.30
2023-05-19T04:00:59.708Z,11.30
2023-05-19T04:03:26.787Z,11.30
2023-05-19T04:05:53.743Z,11.30
2023-05-19T04:08:20.714Z,11.30
2023-05-19T04:10:47.745Z,11.30
2023-05-19T04:13:14.578Z,11.40
2023-05-19T04:15:41.732Z,11.30
2023-05-19T04:18:08.637Z,11.30
2023-05-19T04:20:35.568Z,11.40
2023-05-19T04:23:02.451Z,11.40
2023-05-19T04:25:29.342Z,11.50
2023-05-19T04:27:57.945Z,11.50
2023-05-19T04:30:25.336Z,11.50
2023-05-19T04:32:52.254Z,11.50
2023-05-19T04:35:19.544Z,11.50
2023-05-19T04:37:46.753Z,11.60
2023-05-19T04:40:13.663Z,11.60
2023-05-19T04:42:42.704Z,11.60
2023-05-19T04:45:10.398Z,11.60
2023-05-19T04:47:38.232Z,11.70
2023-05-19T04:50:07.244Z,11.70
2023-05-19T04:52:34.269Z,11.80
2023-05-19T04:55:01.187Z,11.90
2023-05-19T04:57:28.156Z,11.90
2023-05-19T04:59:59.928Z,12.00
2023-05-19T05:02:28.171Z,12.00
2023-05-19T05:04:56.821Z,12.10
2023-05-19T05:07:24.200Z,12.20
2023-05-19T05:09:51.239Z,12.30
2023-05-19T05:12:19.226Z,12.20
2023-05-19T05:14:46.337Z,12.30
2023-05-19T05:17:13.844Z,12.40
2023-05-19T05:19:41.279Z,12.50
2023-05-19T05:22:08.316Z,12.60
2023-05-19T05:24:35.501Z,12.70
2023-05-19T05:27:02.408Z,12.80
2023-05-19T05:29:29.236Z,12.90
2023-05-19T05:31:56.249Z,12.90
2023-05-19T05:34:23.170Z,13.10
2023-05-19T05:36:49.929Z,13.20
2023-05-19T05:39:16.891Z,13.30
2023-05-19T05:41:43.761Z,13.50
2023-05-19T05:44:10.803Z,13.70
2023-05-19T05:46:37.774Z,13.90
2023-05-19T05:49:04.721Z,14.00
2023-05-19T05:51:33.002Z,14.10
2023-05-19T05:54:02.119Z,14.10
2023-05-19T05:56:29.426Z,14.20
2023-05-19T05:58:56.820Z,14.30
2023-05-19T06:01:24.188Z,14.50
2023-05-19T06:03:51.766Z,14.50
2023-05-19T06:06:18.814Z,14.50
2023-05-19T06:08:45.798Z,14.60
2023-05-19T06:11:12.968Z,14.60
2023-05-19T06:13:41.450Z,14.50
2023-05-19T06:16:08.944Z,14.20
2023-05-19T06:18:35.856Z,14.10
2023-05-19T06:21:03.517Z,14.00
2023-05-19T06:23:31.607Z,13.90
2023-05-19T06:25:58.480Z,14.00
2023-05-19T06:28:25.288Z,14.10
2023-05-19T06:30:52.145Z,14.10
2023-05-19T06:33:18.985Z,14.30
2023-05-19T06:35:45.878Z,14.30
2023-05-19T06:38:12.785Z,14.50
2023-05-19T06:40:39.697Z,14.70
2023-05-19T06:43:06.585Z,15.00
2023-05-19T06:45:33.568Z,15.20
2023-05-19T06:48:00.592Z,15.40
2023-05-19T06:50:27.620Z,15.50
2023-05-19T06:52:54.561Z,15.80
2023-05-19T06:55:21.511Z,16.10
2023-05-19T06:57:48.336Z,15.90
2023-05-19T07:00:18.354Z,15.90
2023-05-19T07:02:46.847Z,15.90
2023-05-19T07:05:14.292Z,16.10
2023-05-19T07:07:41.814Z,16.20
2023-05-19T07:10:09.534Z,16.30
2023-05-19T07:12:36.289Z,16.10
2023-05-19T07:15:03.352Z,16.00
2023-05-19T07:17:30.303Z,16.00
2023-05-19T07:19:57.250Z,16.20
2023-05-19T07:22:24.259Z,16.00
2023-05-19T07:24:53.297Z,15.80
2023-05-19T07:27:20.138Z,15.70
2023-05-19T07:29:46.970Z,15.90
2023-05-19T07:32:14.004Z,16.00
2023-05-19T07:34:41.447Z,16.30
2023-05-19T07:37:08.543Z,16.20
2023-05-19T07:39:36.093Z,16.40
2023-05-19T07:42:03.514Z,16.30
2023-05-19T07:44:31.478Z,16.30
2023-05-19T07:46:58.704Z,16.20
2023-05-19T07:49:25.651Z,16.00
2023-05-19T07:51:52.761Z,15.70
2023-05-19T07:54:19.962Z,15.70
2023-05-19T07:56:47.157Z,15.70
2023-05-19T07:59:15.039Z,15.30
2023-05-19T08:01:42.194Z,15.50
2023-05-19T08:04:12.585Z,15.70
2023-05-19T08:06:40.166Z,15.70
2023-05-19T08:09:07.409Z,15.50
2023-05-19T08:11:34.313Z,15.60
2023-05-19T08:14:01.763Z,15.50
2023-05-19T08:16:28.887Z,15.40
2023-05-19T08:18:55.853Z,15.50
2023-05-19T08:21:22.722Z,16.00
2023-05-19T08:23:49.590Z,16.30
2023-05-19T08:26:16.460Z,16.30
2023-05-19T08:28:44.239Z,16.50
2023-05-19T08:31:11.300Z,16.50
2023-05-19T08:33:38.131Z,16.20
2023-05-19T08:36:05.468Z,16.00
2023-05-19T08:38:32.438Z,15.80
2023-05-19T08:40:59.441Z,15.80
2023-05-19T08:43:26.508Z,15.80
2023-05-19T08:45:54.444Z,16.00
2023-05-19T08:48:22.739Z,16.00
2023-05-19T08:51:00.328Z,16.10
2023-05-19T08:53:36.765Z,16.00
2023-05-19T08:56:04.112Z,15.90
2023-05-19T08:58:32.206Z,15.70
2023-05-19T09:01:00.995Z,15.50
2023-05-19T09:03:29.008Z,15.80
2023-05-19T09:05:56.274Z,16.00
2023-05-19T09:08:23.193Z,16.00
2023-05-19T09:10:50.150Z,15.90
2023-05-19T09:13:17.065Z,16.00
2023-05-19T09:15:45.550Z,15.90
2023-05-19T09:18:15.200Z,15.90
2023-05-19T09:20:44.706Z,15.70
2023-05-19T09:23:16.409Z,15.40
2023-05-19T09:25:51.969Z,15.30
2023-05-19T09:28:29.379Z,15.40
2023-05-19T09:31:03.163Z,15.40
2023-05-19T09:33:31.172Z,15.10
2023-05-19T09:35:58.152Z,15.20
2023-05-19T09:38:26.442Z,15.10
2023-05-19T09:40:56.473Z,15.20
2023-05-19T09:43:23.532Z,15.10
2023-05-19T09:46:07.558Z,15.10
2023-05-19T09:48:36.449Z,15.30
2023-05-19T09:51:06.438Z,15.20
2023-05-19T09:53:34.795Z,15.20
2023-05-19T09:56:03.669Z,15.20
2023-05-19T09:58:34.804Z,15.20
2023-05-19T10:01:02.306Z,15.30
2023-05-19T10:03:29.927Z,15.30
2023-05-19T10:05:57.526Z,15.20
2023-05-19T10:08:26.710Z,15.00
2023-05-19T10:10:54.016Z,15.00
2023-05-19T10:13:21.935Z,15.00
2023-05-19T10:15:57.998Z,15.00
2023-05-19T10:18:27.956Z,15.10
2023-05-19T10:20:55.938Z,15.10
2023-05-19T10:23:23.606Z,15.20
2023-05-19T10:25:54.139Z,15.40
2023-05-19T10:28:25.812Z,15.50
2023-05-19T10:30:56.819Z,15.60
2023-05-19T10:33:45.497Z,15.50
2023-05-19T10:36:21.740Z,15.50
2023-05-19T10:39:04.355Z,15.50
2023-05-19T10:41:40.500Z,15.70
2023-05-19T10:44:38.317Z,15.70
2023-05-19T10:47:08.495Z,15.80
2023-05-19T10:49:36.763Z,15.70
2023-05-19T10:52:04.237Z,15.50
2023-05-19T10:54:46.560Z,15.60
2023-05-19T10:57:18.137Z,15.80
2023-05-19T10:59:45.192Z,15.70
2023-05-19T11:02:47.745Z,15.70
2023-05-19T11:05:18.354Z,15.80
2023-05-19T11:07:56.194Z,15.80
2023-05-19T11:10:24.341Z,15.70
2023-05-19T11:12:52.316Z,15.70
2023-05-19T11:15:24.649Z,15.60
2023-05-19T11:17:52.310Z,15.50
2023-05-19T11:20:24.430Z,15.50
2023-05-19T11:23:08.101Z,15.40
2023-05-19T11:25:43.689Z,15.40
2023-05-19T11:28:13.281Z,15.30
2023-05-19T11:30:45.350Z,15.30
2023-05-19T11:33:13.876Z,15.40
2023-05-19T11:35:41.235Z,15.40
2023-05-19T11:38:08.190Z,15.50
2023-05-19T11:40:35.029Z,15.60
2023-05-19T11:43:02.035Z,15.70
2023-05-19T11:45:31.594Z,15.70
2023-05-19T11:48:02.421Z,15.60
2023-05-19T11:50:31.652Z,15.50
2023-05-19T11:53:00.946Z,15.60
2023-05-19T11:55:28.326Z,15.60
2023-05-19T12:00:37.322Z,15.70
2023-05-19T12:03:04.797Z,15.80
2023-05-19T12:05:34.875Z,15.80
2023-05-19T12:08:03.131Z,15.70
2023-05-19T12:10:31.682Z,16.00
2023-05-19T12:12:59.827Z,16.10
2023-05-19T12:15:26.789Z,16.30
2023-05-19T12:17:59.780Z,16.20
2023-05-19T12:20:29.195Z,16.40
2023-05-19T12:22:56.478Z,16.40
2023-05-19T12:25:24.439Z,16.40
2023-05-19T12:27:56.179Z,16.30
2023-05-19T12:30:29.464Z,16.10
2023-05-19T12:32:58.341Z,15.80
2023-05-19T12:35:29.080Z,15.80
2023-05-19T12:37:56.100Z,15.80
2023-05-19T12:40:23.110Z,15.80
2023-05-19T12:42:52.241Z,15.90
2023-05-19T12:45:23.091Z,15.80
2023-05-19T12:47:51.219Z,16.00
2023-05-19T12:50:18.351Z,16.10
2023-05-19T12:52:47.611Z,16.20
2023-05-19T12:55:16.526Z,16.40
2023-05-19T12:57:45.191Z,16.40
2023-05-19T13:00:17.803Z,16.10
2023-05-19T13:03:01.582Z,16.10
2023-05-19T13:05:30.036Z,16.10
2023-05-19T13:07:59.570Z,16.00
2023-05-19T13:10:27.734Z,15.90
2023-05-19T13:12:56.161Z,15.90
2023-05-19T13:15:24.965Z,16.00
2023-05-19T13:17:52.600Z,16.00
2023-05-19T13:20:20.224Z,16.10
2023-05-19T13:22:47.984Z,15.90
2023-05-19T13:25:14.882Z,15.80
2023-05-19T13:27:42.263Z,15.80
2023-05-19T13:30:09.509Z,15.70
2023-05-19T13:32:36.437Z,15.70
2023-05-19T13:35:03.528Z,15.70
2023-05-19T13:37:30.566Z,15.60
2023-05-19T13:39:58.568Z,15.40
2023-05-19T13:42:25.490Z,15.30
2023-05-19T13:44:57.364Z,15.20
2023-05-19T13:47:24.416Z,15.20
2023-05-19T13:49:52.155Z,15.30
2023-05-19T13:52:20.705Z,15.40
2023-05-19T13:54:48.578Z,15.50
2023-05-19T13:57:16.299Z,15.50
2023-05-19T14:00:00.297Z,15.50
2023-05-19T14:02:30.027Z,15.60
2023-05-19T14:04:57.566Z,15.60
2023-05-19T14:07:25.757Z,15.60
2023-05-19T14:09:53.038Z,15.70
2023-05-19T14:12:21.606Z,15.70
2023-05-19T14:14:52.336Z,15.70
2023-05-19T14:17:19.225Z,15.70
2023-05-19T14:19:46.102Z,15.70
2023-05-19T14:22:13.536Z,15.80
2023-05-19T14:24:41.571Z,15.80
2023-05-19T14:27:08.429Z,15.90
2023-05-19T14:29:35.457Z,15.90
2023-05-19T14:32:03.499Z,15.80
2023-05-19T14:34:30.672Z,15.80
2023-05-19T14:36:57.855Z,15.80
2023-05-19T14:39:24.706Z,15.80
2023-05-19T14:41:52.890Z,15.80
2023-05-19T14:44:19.789Z,15.70
2023-05-19T14:46:46.602Z,15.70
2023-05-19T14:49:13.546Z,15.50
2023-05-19T14:51:40.470Z,15.60
2023-05-19T14:54:07.449Z,15.70
2023-05-19T14:56:34.517Z,15.80
2023-05-19T14:59:01.425Z,15.80
2023-05-19T15:01:28.265Z,15.90
2023-05-19T15:03:55.146Z,16.00
2023-05-19T15:06:22.398Z,16.10
2023-05-19T15:08:49.218Z,16.10
2023-05-19T15:11:16.018Z,16.20
2023-05-19T15:13:42.817Z,16.30
2023-05-19T15:16:22.307Z,16.30
2023-05-19T15:18:51.480Z,16.30
2023-05-19T15:21:19.331Z,16.30
2023-05-19T15:23:46.308Z,16.40
2023-05-19T15:26:13.620Z,16.30
2023-05-19T15:28:40.816Z,16.40
2023-05-19T15:31:07.708Z,16.20
2023-05-19T15:33:34.633Z,16.10
2023-05-19T15:36:01.463Z,16.20
2023-05-19T15:38:30.001Z,16.30
2023-05-19T15:40:57.570Z,16.30
2023-05-19T15:43:25.331Z,16.30
2023-05-19T15:45:55.029Z,16.40
2023-05-19T15:48:22.073Z,16.40
2023-05-19T15:50:48.915Z,16.60
2023-05-19T15:53:15.850Z,16.80
2023-05-19T15:55:42.727Z,16.90
2023-05-19T15:58:09.568Z,17.10
2023-05-19T16:00:36.534Z,17.20
2023-05-19T16:03:03.404Z,17.10
2023-05-19T16:05:30.198Z,17.20
2023-05-19T16:07:56.960Z,17.20
2023-05-19T16:10:23.799Z,17.20
2023-05-19T16:12:50.749Z,17.20
2023-05-19T16:15:17.812Z,17.20
2023-05-19T16:17:44.783Z,17.20
2023-05-19T16:20:11.936Z,17.20
2023-05-19T16:22:38.946Z,17.30
2023-05-19T16:25:06.509Z,17.30
2023-05-19T16:27:33.279Z,17.20
2023-05-19T16:30:01.214Z,17.30
2023-05-19T16:32:28.091Z,17.50
2023-05-19T16:34:54.956Z,17.40
2023-05-19T16:37:21.789Z,17.50
2023-05-19T16:39:48.822Z,17.20
2023-05-19T16:42:15.737Z,17.00
2023-05-19T16:44:43.222Z,17.00
2023-05-19T16:47:10.036Z,17.00
2023-05-19T16:49:37.636Z,17.00
2023-05-19T16:52:04.843Z,17.00
2023-05-19T16:54:31.674Z,16.90
2023-05-19T16:56:58.472Z,16.80
2023-05-19T16:59:25.609Z,16.70
2023-05-19T17:01:52.476Z,16.30
2023-05-19T17:04:19.520Z,16.30
2023-05-19T17:06:47.635Z,16.10
2023-05-19T17:09:14.514Z,16.00
2023-05-19T17:11:41.588Z,16.00
2023-05-19T17:14:09.298Z,15.90
2023-05-19T17:16:36.743Z,16.00
2023-05-19T17:19:04.437Z,16.00
2023-05-19T17:21:31.726Z,16.00
2023-05-19T17:23:58.543Z,16.00
2023-05-19T17:26:25.357Z,16.00
2023-05-19T17:28:52.241Z,16.10
2023-05-19T17:31:19.232Z,16.20
2023-05-19T17:33:46.242Z,16.20
2023-05-19T17:36:13.850Z,16.20
2023-05-19T17:38:42.040Z,16.20
2023-05-19T17:41:10.821Z,16.20
2023-05-19T17:43:38.431Z,16.30
2023-05-19T17:46:06.084Z,16.20
2023-05-19T17:48:33.304Z,16.10
2023-05-19T17:51:00.455Z,16.00
2023-05-19T17:53:27.657Z,15.90
2023-05-19T17:55:59.517Z,15.90
2023-05-19T17:58:27.314Z,15.70
2023-05-19T18:00:54.884Z,15.70
2023-05-19T18:03:22.958Z,15.60
2023-05-19T18:05:51.138Z,15.40
2023-05-19T18:08:18.507Z,15.30
2023-05-19T18:10:46.312Z,15.30
2023-05-19T18:13:14.392Z,15.20
2023-05-19T18:15:41.691Z,15.10
2023-05-19T18:18:10.689Z,15.00
2023-05-19T18:20:41.142Z,14.90
2023-05-19T18:23:08.034Z,14.90
2023-05-19T18:25:35.713Z,14.80
2023-05-19T18:28:02.755Z,14.70
2023-05-19T18:30:29.788Z,14.60
2023-05-19T18:32:56.794Z,14.50
2023-05-19T18:35:23.752Z,14.40
2023-05-19T18:37:50.745Z,14.30
2023-05-19T18:40:17.724Z,14.20
2023-05-19T18:42:44.576Z,14.20
2023-05-19T18:45:11.704Z,14.00
2023-05-19T18:47:38.614Z,14.00
2023-05-19T18:50:07.031Z,13.90
2023-05-19T18:52:34.045Z,13.80
2023-05-19T18:55:01.223Z,13.70
2023-05-19T18:57:28.245Z,13.60
2023-05-19T18:59:55.059Z,13.60
2023-05-19T19:02:22.087Z,13.50
2023-05-19T19:04:49.068Z,13.40
2023-05-19T19:07:16.226Z,13.40
2023-05-19T19:09:43.966Z,13.30
2023-05-19T19:12:11.190Z,13.30
2023-05-19T19:14:38.796Z,13.20
2023-05-19T19:17:06.069Z,13.10
2023-05-19T19:19:33.090Z,13.10
2023-05-19T19:22:06.371Z,13.00
2023-05-19T19:24:33.253Z,13.00
2023-05-19T19:27:00.791Z,13.00
2023-05-19T19:29:28.456Z,12.90
2023-05-19T19:31:55.562Z,12.90
2023-05-19T19:34:22.433Z,13.00
2023-05-19T19:36:49.730Z,12.90
2023-05-19T19:39:17.493Z,12.90
2023-05-19T19:41:44.488Z,12.90
2023-05-19T19:44:11.435Z,12.90
2023-05-19T19:46:38.357Z,12.90
2023-05-19T19:49:05.333Z,12.90
2023-05-19T19:51:32.379Z,12.90
2023-05-19T19:53:59.329Z,12.80
2023-05-19T19:56:27.688Z,12.80
2023-05-19T19:58:56.845Z,12.80
2023-05-19T20:01:27.660Z,12.90
2023-05-19T20:03:56.049Z,12.80
2023-05-19T20:06:23.572Z,12.80
2023-05-19T20:08:50.536Z,12.70
2023-05-19T20:11:17.554Z,12.70
2023-05-19T20:13:44.547Z,12.70
2023-05-19T20:16:11.647Z,12.70
2023-05-19T20:18:39.566Z,12.70
2023-05-19T20:21:06.501Z,12.70
2023-05-19T20:23:33.568Z,12.70
2023-05-19T20:26:11.942Z,12.60
2023-05-19T20:28:40.431Z,12.60
2023-05-19T20:31:07.603Z,12.60
2023-05-19T20:33:34.718Z,12.60
2023-05-19T20:36:01.856Z,12.50
2023-05-19T20:38:29.321Z,12.60
2023-05-19T20:40:57.769Z,12.60
2023-05-19T20:43:24.751Z,12.40
2023-05-19T20:45:52.273Z,11.20
2023-05-19T20:48:19.159Z,12.50
2023-05-19T20:50:46.383Z,12.50
2023-05-19T20:53:13.296Z,12.50
2023-05-19T20:55:40.464Z,12.50
2023-05-19T20:58:07.351Z,12.50
2023-05-19T21:00:34.327Z,12.60
2023-05-19T21:03:01.584Z,12.50
2023-05-19T21:05:29.004Z,12.50
2023-05-19T21:07:55.945Z,12.50
2023-05-19T21:10:22.795Z,12.50
2023-05-19T21:12:49.680Z,12.50
2023-05-19T21:15:16.645Z,12.50
2023-05-19T21:17:43.479Z,12.50
2023-05-19T21:20:11.065Z,12.50
2023-05-19T21:22:37.968Z,12.50
2023-05-19T21:25:05.255Z,12.40
2023-05-19T21:27:35.409Z,12.50
2023-05-19T21:30:02.565Z,12.40
2023-05-19T21:32:29.765Z,12.40
2023-05-19T21:34:56.757Z,12.40
2023-05-19T21:37:23.616Z,12.40
2023-05-19T21:39:50.786Z,12.40
2023-05-19T21:42:18.007Z,12.40
2023-05-19T21:44:44.852Z,12.40
2023-05-19T21:47:11.669Z,12.40
2023-05-19T21:49:40.060Z,12.40
2023-05-19T21:52:07.993Z,12.40
2023-05-19T21:54:35.064Z,12.40
2023-05-19T21:57:02.546Z,12.20
2023-05-19T21:59:29.459Z,12.40
2023-05-19T22:01:56.393Z,12.30
2023-05-19T22:04:23.257Z,12.30
2023-05-19T22:06:50.059Z,12.20
2023-05-19T22:09:17.049Z,12.20
2023-05-19T22:11:43.976Z,12.10
2023-05-19T22:14:11.190Z,12.10
2023-05-19T22:16:38.081Z,12.10
2023-05-19T22:19:05.268Z,12.10
2023-05-19T22:21:32.657Z,12.10
2023-05-19T22:23:59.551Z,12.00
2023-05-19T22:26:27.220Z,12.00
2023-05-19T22:28:54.922Z,12.00
2023-05-19T22:31:21.901Z,12.00
2023-05-19T22:33:48.740Z,12.00
2023-05-19T22:36:17.097Z,11.90
2023-05-19T22:38:44.036Z,12.00
2023-05-19T22:41:11.176Z,11.90
2023-05-19T22:43:38.283Z,11.90
2023-05-19T22:46:05.451Z,11.90
2023-05-19T22:48:32.350Z,11.90
2023-05-19T22:50:59.222Z,12.00
2023-05-19T22:53:26.082Z,11.90
2023-05-19T22:55:52.906Z,11.80
2023-05-19T22:58:19.776Z,11.90
2023-05-19T23:00:46.726Z,11.90
2023-05-19T23:03:13.629Z,11.90
2023-05-19T23:05:40.676Z,11.80
2023-05-19T23:08:07.630Z,11.90
2023-05-19T23:10:34.536Z,11.90
2023-05-19T23:13:01.307Z,11.90
2023-05-19T23:15:28.116Z,11.80
2023-05-19T23:17:55.121Z,11.80
2023-05-19T23:20:22.162Z,11.80
2023-05-19T23:22:48.985Z,11.80
2023-05-19T23:25:15.789Z,11.80
2023-05-19T23:27:42.666Z,11.80
2023-05-19T23:30:09.644Z,11.70
2023-05-19T23:32:36.465Z,11.70
2023-05-19T23:35:12.150Z,11.70
2023-05-19T23:37:38.968Z,11.70
2023-05-19T23:40:06.850Z,11.60
2023-05-19T23:42:33.896Z,11.60
2023-05-19T23:45:00.902Z,11.60
2023-05-19T23:47:27.988Z,11.60
2023-05-19T23:49:54.854Z,11.50
2023-05-19T23:52:21.646Z,11.50
2023-05-19T23:54:48.803Z,11.50
2023-05-19T23:57:15.733Z,11.50
2023-05-19T23:59:43.167Z,11.50
